Time;durP1;ratioP1;P1;durP2;ratioP2;P2;SDS_P1;SDS_P2;PMS_P1;PMS_P2;Temp;Humidity;BMP_temperature;BMP_pressure;BME280_temperature;BME280_humidity;BME280_pressure;Samples;Min_cycle;Max_cycle;Signal;HPM_P1;HPM_P2
2022/01/27 00:00:56;;;;;;;27.77;14.13;;;;;;;3.35;70.71;102092.53;5110155;28;20705;-63
2022/01/27 00:03:28;;;;;;;26.67;12.80;;;;;;;3.19;70.57;102097.56;5112740;28;20212;-63
2022/01/27 00:06:00;;;;;;;29.03;13.67;;;;;;;3.34;70.39;102093.47;5096659;27;20208;-63
2022/01/27 00:08:31;;;;;;;30.57;14.67;;;;;;;3.13;70.90;102083.84;5113369;28;20203;-63
2022/01/27 00:11:07;;;;;;;26.77;12.77;;;;;;;2.98;71.86;102086.16;5115638;27;20307;-61
2022/01/27 00:13:43;;;;;;;27.80;13.37;;;;;;;3.23;71.42;102075.56;5115177;27;20257;-63
2022/01/27 00:16:15;;;;;;;25.60;12.97;;;;;;;3.00;71.81;102070.34;5112323;28;20220;-64
2022/01/27 00:18:44;;;;;;;35.10;14.70;;;;;;;3.26;71.64;102077.16;5113617;28;20674;-63
2022/01/27 00:21:13;;;;;;;28.23;13.73;;;;;;;3.40;70.52;102080.97;5114210;28;20232;-63
2022/01/27 00:23:42;;;;;;;31.87;13.40;;;;;;;3.25;71.24;102081.59;5112616;27;20215;-62
2022/01/27 00:26:11;;;;;;;30.57;14.87;;;;;;;3.31;70.88;102078.72;5106650;28;20328;-64
2022/01/27 00:28:39;;;;;;;33.40;14.80;;;;;;;3.21;71.58;102066.88;5101447;27;20244;-63
2022/01/27 00:31:07;;;;;;;33.30;14.63;;;;;;;3.13;71.77;102070.72;5114819;27;20234;-62
2022/01/27 00:33:36;;;;;;;29.83;14.03;;;;;;;3.01;72.61;102075.53;5126311;27;20206;-63
2022/01/27 00:36:04;;;;;;;32.43;15.77;;;;;;;3.17;72.03;102074.91;5114793;27;20254;-62
2022/01/27 00:38:32;;;;;;;32.43;15.47;;;;;;;3.16;72.28;102078.47;5111744;27;20241;-63
2022/01/27 00:41:01;;;;;;;35.03;16.37;;;;;;;3.36;71.70;102079.38;5112569;27;20288;-64
2022/01/27 00:43:30;;;;;;;35.50;16.00;;;;;;;3.26;71.80;102078.03;5127560;27;20589;-63
2022/01/27 00:45:58;;;;;;;36.57;16.37;;;;;;;3.44;71.56;102072.94;5110476;27;20226;-62
2022/01/27 00:48:26;;;;;;;33.07;15.97;;;;;;;3.38;71.37;102067.03;5110688;28;20819;-63
2022/01/27 00:50:57;;;;;;;34.33;16.23;;;;;;;3.24;72.45;102066.78;5108504;27;20227;-63
2022/01/27 00:53:34;;;;;;;33.40;16.20;;;;;;;2.97;73.03;102060.03;5101180;27;20641;-62
2022/01/27 00:56:15;;;;;;;31.97;16.37;;;;;;;3.34;72.62;102064.63;5114091;27;20208;-63
2022/01/27 00:58:52;;;;;;;30.13;14.30;;;;;;;3.25;72.03;102055.38;5114695;27;20306;-62
2022/01/27 01:01:24;;;;;;;34.33;15.80;;;;;;;3.56;70.97;102048.84;5112536;28;20196;-63
2022/01/27 01:03:56;;;;;;;31.07;14.10;;;;;;;3.32;71.53;102035.84;5105647;27;20312;-62
2022/01/27 01:06:34;;;;;;;33.03;13.73;;;;;;;3.28;71.56;102034.25;5112981;27;20227;-62
2022/01/27 01:14:43;;;;;;;32.67;14.80;;;;;;;3.31;72.38;102033.28;5097483;27;20290;-61
2022/01/27 01:20:22;;;;;;;32.00;14.80;;;;;;;3.11;73.10;102031.47;5110504;28;20218;-62
2022/01/27 01:31:15;;;;;;;30.00;13.53;;;;;;;3.16;72.17;102028.69;5117916;27;20239;-63
2022/01/27 01:33:45;;;;;;;32.07;13.77;;;;;;;2.77;73.33;102020.63;5122526;27;20209;-61
2022/01/27 01:36:15;;;;;;;30.83;14.30;;;;;;;3.12;72.55;102022.69;5112728;27;20763;-62
2022/01/27 01:38:45;;;;;;;29.47;13.57;;;;;;;3.08;72.67;102022.91;5112748;28;20220;-63
2022/01/27 01:41:12;;;;;;;31.17;13.40;;;;;;;3.20;72.23;102033.72;5118779;27;20664;-63
2022/01/27 01:43:40;;;;;;;29.83;13.87;;;;;;;3.07;72.84;102029.91;5115290;27;20204;-63
2022/01/27 01:46:09;;;;;;;26.37;12.97;;;;;;;3.07;72.72;102031.66;5109456;27;20215;-63
2022/01/27 01:48:37;;;;;;;28.27;13.60;;;;;;;3.01;73.33;102045.84;5098141;27;20206;-63
2022/01/27 01:51:05;;;;;;;28.13;12.90;;;;;;;3.12;73.33;102042.81;5114086;28;20235;-62
2022/01/27 01:53:33;;;;;;;30.73;13.70;;;;;;;3.17;73.01;102049.56;5112297;27;20221;-63
2022/01/27 01:56:00;;;;;;;28.63;13.37;;;;;;;2.95;73.64;102046.13;5108669;27;20319;-63
2022/01/27 01:58:28;;;;;;;29.40;13.03;;;;;;;3.26;72.66;102050.94;5102412;27;20858;-62
2022/01/27 02:00:56;;;;;;;30.53;13.83;;;;;;;3.36;71.99;102047.91;5079422;28;20231;-63
2022/01/27 02:03:25;;;;;;;32.43;14.90;;;;;;;3.00;73.51;102044.16;5091802;28;20300;-63
2022/01/27 02:05:56;;;;;;;36.13;14.67;;;;;;;3.02;73.98;102052.81;5088606;28;20227;-63
2022/01/27 02:08:38;;;;;;;32.90;13.73;;;;;;;3.21;73.22;102047.69;5082890;28;20311;-62
2022/01/27 02:19:28;;;;;;;35.77;14.53;;;;;;;3.29;72.92;102040.34;5076668;28;20215;-62
2022/01/27 02:21:58;;;;;;;35.47;15.43;;;;;;;3.26;73.00;102043.09;5093011;28;20240;-64
2022/01/27 02:24:29;;;;;;;32.47;13.50;;;;;;;3.37;72.99;102031.25;5093655;28;20611;-64
2022/01/27 02:26:58;;;;;;;30.70;13.53;;;;;;;3.20;73.34;102025.84;5091278;28;20230;-63
2022/01/27 02:29:26;;;;;;;34.50;15.63;;;;;;;3.09;73.58;102020.19;5092636;28;20210;-63
2022/01/27 02:31:56;;;;;;;33.50;15.53;;;;;;;3.34;72.81;102007.75;5092848;28;20794;-65
2022/01/27 02:34:24;;;;;;;35.07;15.03;;;;;;;2.85;74.22;102019.41;5095088;28;20218;-62
2022/01/27 02:36:52;;;;;;;38.23;17.00;;;;;;;3.14;73.98;102013.00;5090903;28;20219;-61
2022/01/27 02:39:22;;;;;;;36.97;15.40;;;;;;;3.30;73.14;102000.97;5093092;28;20304;-63
2022/01/27 02:41:56;;;;;;;32.73;14.87;;;;;;;3.25;73.07;101996.84;5081552;28;20214;-63
2022/01/27 02:44:34;;;;;;;33.63;15.67;;;;;;;3.22;73.41;101992.56;5075557;28;20214;-62
2022/01/27 02:47:02;;;;;;;37.37;15.87;;;;;;;3.29;72.63;101988.75;5091387;28;20666;-63
2022/01/27 02:49:30;;;;;;;34.93;15.10;;;;;;;3.32;72.88;101986.03;5089838;28;20216;-62
2022/01/27 02:51:58;;;;;;;34.60;15.63;;;;;;;3.22;72.96;101976.84;5091111;28;20682;-62
2022/01/27 02:54:27;;;;;;;36.80;16.27;;;;;;;3.30;72.88;101972.13;5080684;28;20242;-62
2022/01/27 02:57:15;;;;;;;32.53;14.10;;;;;;;3.19;73.48;101976.09;5091927;28;20212;-62
2022/01/27 02:59:42;;;;;;;34.50;15.27;;;;;;;3.34;72.82;101971.06;5098975;27;20770;-62
2022/01/27 03:02:12;;;;;;;39.23;15.70;;;;;;;3.03;73.92;101957.53;5109218;28;20215;-62
2022/01/27 03:04:40;;;;;;;31.97;14.27;;;;;;;2.62;75.11;101960.09;5110753;27;20211;-61
2022/01/27 03:07:08;;;;;;;41.63;16.43;;;;;;;2.75;74.72;101949.09;5110285;28;20286;-62
2022/01/27 03:09:38;;;;;;;38.13;15.50;;;;;;;2.98;74.67;101942.03;5110213;28;20283;-62
2022/01/27 03:12:08;;;;;;;38.07;16.23;;;;;;;2.64;75.40;101955.63;5111300;28;20315;-62
2022/01/27 03:14:36;;;;;;;36.33;14.50;;;;;;;2.99;74.03;101953.38;5107445;28;20250;-62
2022/01/27 03:17:06;;;;;;;36.00;15.20;;;;;;;2.94;73.95;101963.16;5108407;28;20565;-62
2022/01/27 03:19:36;;;;;;;34.07;15.03;;;;;;;3.20;73.08;101959.47;5110898;28;20408;-62
2022/01/27 03:22:05;;;;;;;35.93;15.30;;;;;;;3.22;72.76;101955.00;5109610;28;20596;-62
2022/01/27 03:24:33;;;;;;;32.10;14.73;;;;;;;3.27;72.47;101958.28;5112345;28;20402;-62
2022/01/27 03:27:05;;;;;;;35.73;14.93;;;;;;;3.30;72.69;101951.16;5109198;28;20242;-62
2022/01/27 03:29:33;;;;;;;30.03;13.77;;;;;;;3.10;73.18;101955.50;5116008;28;20212;-63
2022/01/27 03:32:00;;;;;;;38.30;15.43;;;;;;;3.22;72.97;101950.63;5117360;28;20830;-63
2022/01/27 03:34:28;;;;;;;31.13;14.13;;;;;;;3.14;73.33;101955.34;5109229;28;20339;-63
2022/01/27 03:36:56;;;;;;;33.37;15.23;;;;;;;3.12;72.95;101954.53;5111267;28;20299;-63
2022/01/27 03:39:25;;;;;;;33.90;15.77;;;;;;;2.72;74.71;101960.59;5113670;28;20298;-63
2022/01/27 03:41:55;;;;;;;33.37;14.10;;;;;;;2.98;74.23;101951.66;5106008;28;20283;-63
2022/01/27 03:44:25;;;;;;;31.43;14.17;;;;;;;2.88;74.33;101945.94;5109827;28;20211;-63
2022/01/27 03:46:55;;;;;;;31.33;13.27;;;;;;;3.03;74.13;101945.28;5110440;28;20374;-63
2022/01/27 03:49:23;;;;;;;30.80;12.93;;;;;;;3.01;73.69;101927.91;5110225;28;20208;-63
2022/01/27 03:51:51;;;;;;;28.47;12.43;;;;;;;3.00;73.37;101929.69;5109751;28;20259;-63
2022/01/27 03:54:19;;;;;;;29.33;13.17;;;;;;;3.23;72.75;101936.59;5102607;28;20441;-62
2022/01/27 03:56:47;;;;;;;29.17;12.90;;;;;;;3.06;73.27;101948.72;5110169;28;20235;-62
2022/01/27 03:59:15;;;;;;;29.47;13.67;;;;;;;3.01;74.08;101941.03;5109395;28;20240;-62
2022/01/27 04:01:44;;;;;;;29.90;12.77;;;;;;;2.97;73.77;101936.84;5113757;28;20207;-64
2022/01/27 04:04:13;;;;;;;29.80;14.33;;;;;;;3.17;73.11;101947.31;5109419;28;20297;-62
2022/01/27 04:06:42;;;;;;;29.37;12.80;;;;;;;3.20;73.03;101946.34;5111249;28;20225;-62
2022/01/27 04:09:11;;;;;;;28.43;12.60;;;;;;;3.15;73.02;101937.84;5113576;27;20219;-62
2022/01/27 04:11:41;;;;;;;27.23;12.50;;;;;;;2.85;73.79;101945.19;5112996;27;20310;-62
2022/01/27 04:14:10;;;;;;;27.77;12.00;;;;;;;3.24;72.83;101937.44;5115959;27;20211;-62
2022/01/27 04:16:38;;;;;;;28.57;12.00;;;;;;;3.06;73.32;101936.47;5112648;27;20245;-61
2022/01/27 04:19:07;;;;;;;25.93;11.83;;;;;;;2.80;74.18;101955.03;5114274;27;20664;-62
2022/01/27 04:21:35;;;;;;;28.60;12.17;;;;;;;3.10;73.44;101956.38;5118108;27;20265;-63
2022/01/27 04:24:03;;;;;;;24.67;11.43;;;;;;;2.87;73.79;101948.63;5114473;27;20290;-62
2022/01/27 04:26:37;;;;;;;30.20;11.57;;;;;;;3.01;73.69;101935.78;5115497;27;20239;-62
2022/01/27 04:29:05;;;;;;;25.47;11.17;;;;;;;3.01;73.07;101936.63;5121595;27;20213;-63
2022/01/27 04:31:33;;;;;;;24.30;11.10;;;;;;;2.96;73.71;101927.28;5114639;27;20231;-61
2022/01/27 04:34:01;;;;;;;28.30;11.90;;;;;;;2.95;73.20;101930.81;5102536;28;20208;-62
2022/01/27 04:36:32;;;;;;;26.07;11.43;;;;;;;2.79;73.82;101933.22;5100584;27;20213;-63
2022/01/27 04:39:09;;;;;;;23.80;11.20;;;;;;;2.78;74.36;101939.38;5129042;27;20208;-61
2022/01/27 04:41:42;;;;;;;25.47;12.63;;;;;;;2.79;74.49;101938.47;5113648;27;20204;-61
2022/01/27 04:44:18;;;;;;;25.17;11.60;;;;;;;2.90;73.73;101943.25;5111994;27;20298;-61
2022/01/27 04:46:52;;;;;;;26.03;12.40;;;;;;;3.04;73.11;101940.91;5115204;27;20219;-63
2022/01/27 04:49:20;;;;;;;26.47;12.10;;;;;;;2.65;74.22;101946.84;5112198;27;20211;-65
2022/01/27 04:51:49;;;;;;;25.47;11.67;;;;;;;2.65;74.67;101953.88;5114275;27;20229;-65
2022/01/27 04:54:22;;;;;;;26.77;12.00;;;;;;;2.58;74.90;101950.66;5114625;27;20208;-64
2022/01/27 04:56:50;;;;;;;26.20;12.23;;;;;;;2.60;74.84;101951.44;5111419;28;20708;-63
2022/01/27 04:59:22;;;;;;;26.03;12.40;;;;;;;2.60;75.27;101950.59;5104695;27;20332;-62
2022/01/27 05:01:54;;;;;;;25.60;11.70;;;;;;;2.78;74.92;101954.22;5106161;27;20213;-62
2022/01/27 05:04:25;;;;;;;26.90;11.50;;;;;;;2.84;74.33;101948.72;5112191;27;20230;-63
2022/01/27 05:06:54;;;;;;;30.37;13.40;;;;;;;2.64;74.96;101958.25;5114909;27;20207;-63
2022/01/27 05:09:23;;;;;;;27.50;12.07;;;;;;;2.42;75.94;101952.16;5115201;27;20230;-63
2022/01/27 05:11:54;;;;;;;27.30;10.93;;;;;;;2.84;74.88;101943.50;5111919;27;20261;-63
2022/01/27 05:14:24;;;;;;;28.13;12.50;;;;;;;2.52;74.52;101932.56;5113319;27;20310;-62
2022/01/27 05:16:52;;;;;;;29.73;13.47;;;;;;;2.77;74.77;101924.56;5112720;27;20216;-63
2022/01/27 05:19:20;;;;;;;26.67;12.07;;;;;;;2.82;74.13;101926.97;5106613;27;20211;-62
2022/01/27 05:21:48;;;;;;;26.03;11.63;;;;;;;2.76;74.72;101927.25;5114321;27;20211;-63
2022/01/27 05:24:22;;;;;;;28.77;13.03;;;;;;;2.88;74.14;101937.22;5111650;27;20770;-62
2022/01/27 05:26:50;;;;;;;30.07;12.90;;;;;;;2.99;73.87;101935.03;5111352;27;20230;-62
2022/01/27 05:29:17;;;;;;;26.27;12.50;;;;;;;3.04;73.99;101935.66;5109039;28;20239;-63
2022/01/27 05:31:46;;;;;;;29.00;11.50;;;;;;;2.84;73.99;101933.00;5112755;27;20306;-62
2022/01/27 05:34:14;;;;;;;29.23;12.50;;;;;;;2.97;74.05;101934.22;5112341;28;20211;-63
2022/01/27 05:36:41;;;;;;;27.43;11.70;;;;;;;2.69;75.15;101933.66;5121330;27;20416;-63
2022/01/27 05:39:09;;;;;;;30.50;13.03;;;;;;;2.76;75.19;101928.09;5113125;27;20259;-63
2022/01/27 05:41:38;;;;;;;25.50;12.77;;;;;;;2.85;74.88;101924.25;5097620;27;20335;-62
2022/01/27 05:44:06;;;;;;;30.93;13.70;;;;;;;2.91;74.33;101934.47;5124780;27;20676;-63
2022/01/27 05:46:34;;;;;;;29.27;12.77;;;;;;;3.06;74.23;101933.84;5111452;28;20224;-61
2022/01/27 05:49:03;;;;;;;25.43;12.03;;;;;;;3.18;73.79;101932.44;5109930;28;20263;-62
2022/01/27 05:51:31;;;;;;;27.20;12.80;;;;;;;3.11;73.58;101941.50;5112551;27;20214;-62
2022/01/27 05:53:59;;;;;;;26.10;12.27;;;;;;;3.30;72.86;101945.03;5111941;27;20314;-64
2022/01/27 05:56:26;;;;;;;26.53;11.63;;;;;;;3.40;72.80;101943.72;5113148;27;20268;-61
2022/01/27 05:58:56;;;;;;;28.23;12.73;;;;;;;3.24;73.51;101938.31;5112295;28;20205;-62
2022/01/27 06:01:23;;;;;;;31.67;14.00;;;;;;;3.58;72.32;101942.06;5093921;28;20217;-63
2022/01/27 06:03:51;;;;;;;32.97;13.60;;;;;;;3.46;72.51;101924.25;5088239;28;20212;-63
2022/01/27 06:06:19;;;;;;;28.23;12.27;;;;;;;3.34;72.64;101921.22;5090867;28;20248;-63
2022/01/27 06:08:47;;;;;;;28.93;12.20;;;;;;;3.15;73.96;101922.13;5078681;28;20206;-64
2022/01/27 06:11:14;;;;;;;28.37;12.73;;;;;;;3.10;74.02;101929.31;5091730;28;20578;-63
2022/01/27 06:13:43;;;;;;;26.83;11.30;;;;;;;3.31;73.79;101923.16;5090360;28;20233;-61
2022/01/27 06:16:12;;;;;;;28.67;12.40;;;;;;;3.12;74.60;101914.38;5089530;28;20594;-64
2022/01/27 06:18:41;;;;;;;26.53;12.07;;;;;;;3.26;74.42;101918.09;5092411;28;20214;-62
2022/01/27 06:21:10;;;;;;;26.23;11.77;;;;;;;3.38;73.46;101925.44;5092505;28;21004;-61
2022/01/27 06:23:38;;;;;;;28.57;12.17;;;;;;;3.07;74.99;101926.84;5090260;28;20212;-63
2022/01/27 06:26:06;;;;;;;28.07;12.30;;;;;;;3.24;74.08;101926.97;5092613;28;20245;-63
2022/01/27 06:28:34;;;;;;;24.00;10.93;;;;;;;3.08;74.65;101929.34;5091212;28;20240;-63
2022/01/27 06:31:01;;;;;;;30.80;12.50;;;;;;;3.08;74.71;101931.16;5091514;28;20213;-61
2022/01/27 06:33:31;;;;;;;28.27;12.67;;;;;;;3.15;74.63;101937.84;5091465;28;20706;-63
2022/01/27 06:35:58;;;;;;;27.33;12.63;;;;;;;3.38;73.59;101927.22;5102836;28;20212;-64
2022/01/27 06:38:26;;;;;;;27.47;13.23;;;;;;;3.11;74.70;101916.13;5091829;28;20209;-62
2022/01/27 06:40:54;;;;;;;31.10;13.03;;;;;;;3.30;74.06;101914.44;5089973;28;20218;-62
2022/01/27 06:43:22;;;;;;;25.33;11.57;;;;;;;3.03;75.09;101916.47;5092000;28;20795;-62
2022/01/27 06:45:50;;;;;;;27.80;12.10;;;;;;;3.33;74.60;101911.69;5099711;28;20326;-63
2022/01/27 06:48:18;;;;;;;26.90;12.00;;;;;;;3.25;74.78;101908.56;5089198;28;20700;-63
2022/01/27 06:50:53;;;;;;;28.80;13.07;;;;;;;3.14;75.05;101909.91;5089870;28;20224;-62
2022/01/27 06:53:21;;;;;;;26.20;12.50;;;;;;;2.95;75.99;101909.84;5088629;28;20288;-61
2022/01/27 06:55:49;;;;;;;28.80;12.20;;;;;;;2.63;77.09;101908.56;5089886;28;20217;-63
2022/01/27 06:58:16;;;;;;;30.57;13.60;;;;;;;2.81;77.30;101902.56;5091499;28;20214;-63
2022/01/27 07:00:44;;;;;;;31.27;12.20;;;;;;;2.62;77.62;101907.72;5088776;28;20718;-63
2022/01/27 07:03:12;;;;;;;29.93;12.73;;;;;;;2.42;78.28;101899.81;5089005;28;20215;-61
2022/01/27 07:05:41;;;;;;;27.40;12.60;;;;;;;2.44;78.59;101897.97;5088893;28;20535;-63
2022/01/27 07:08:10;;;;;;;27.43;12.77;;;;;;;2.59;77.78;101899.97;5090527;28;20299;-63
2022/01/27 07:10:38;;;;;;;26.73;12.47;;;;;;;2.35;79.29;101908.81;5088255;28;20219;-63
2022/01/27 07:13:05;;;;;;;28.97;12.87;;;;;;;2.43;79.40;101900.66;5079415;28;20700;-62
2022/01/27 07:15:33;;;;;;;30.00;12.67;;;;;;;2.43;78.87;101898.03;5088478;28;20735;-62
2022/01/27 07:18:01;;;;;;;27.00;12.00;;;;;;;2.48;78.55;101885.59;5088100;28;20304;-62
2022/01/27 07:20:28;;;;;;;30.17;13.07;;;;;;;2.46;78.89;101885.66;5074859;28;20210;-63
2022/01/27 07:22:56;;;;;;;28.63;12.67;;;;;;;2.57;78.63;101886.09;5095886;28;20263;-62
2022/01/27 07:25:25;;;;;;;27.53;12.73;;;;;;;2.65;78.10;101885.75;5091818;28;20325;-63
2022/01/27 07:27:58;;;;;;;28.20;12.70;;;;;;;2.82;78.00;101891.16;5091178;28;20208;-63
2022/01/27 07:30:26;;;;;;;25.10;11.87;;;;;;;2.62;78.15;101892.00;5089297;28;20218;-62
2022/01/27 07:32:54;;;;;;;26.23;12.53;;;;;;;2.60;78.46;101883.34;5088413;28;20218;-63
2022/01/27 07:35:22;;;;;;;30.10;13.00;;;;;;;2.56;78.45;101875.66;5105443;28;20238;-63
2022/01/27 07:37:50;;;;;;;29.03;12.67;;;;;;;2.34;79.71;101880.09;5089683;28;20306;-62
2022/01/27 07:40:17;;;;;;;29.20;11.83;;;;;;;2.34;79.33;101880.94;5096203;28;20242;-64
2022/01/27 07:43:10;;;;;;;28.73;12.30;;;;;;;2.14;79.80;101875.63;5086838;28;20240;-63
2022/01/27 07:45:38;;;;;;;30.70;12.93;;;;;;;2.32;79.19;101880.13;5094398;28;20752;-63
2022/01/27 07:48:06;;;;;;;25.43;11.10;;;;;;;2.06;80.19;101869.84;5096454;28;20218;-64
2022/01/27 07:50:34;;;;;;;23.73;10.43;;;;;;;1.99;81.21;101868.38;5078457;28;20277;-63
2022/01/27 07:53:02;;;;;;;25.10;10.53;;;;;;;2.07;80.32;101866.31;5093184;28;20222;-63
2022/01/27 07:55:30;;;;;;;24.93;10.53;;;;;;;2.12;80.14;101864.34;5095155;28;20211;-63
2022/01/27 07:57:57;;;;;;;24.70;10.37;;;;;;;2.13;80.33;101860.84;5094284;28;20294;-62
2022/01/27 08:00:27;;;;;;;29.23;12.10;;;;;;;2.21;79.49;101837.81;5091689;28;20329;-63
2022/01/27 08:02:54;;;;;;;26.17;10.93;;;;;;;1.95;80.75;101844.09;5115261;27;20245;-62
2022/01/27 08:05:22;;;;;;;26.33;11.37;;;;;;;1.77;81.57;101845.66;5114684;27;20218;-62
2022/01/27 08:07:51;;;;;;;23.67;10.53;;;;;;;1.49;82.50;101832.78;5113380;27;20324;-62
2022/01/27 08:10:19;;;;;;;24.10;10.67;;;;;;;1.60;82.85;101834.97;5115123;27;20872;-63
2022/01/27 08:12:46;;;;;;;26.67;10.37;;;;;;;1.78;81.85;101828.19;5114426;28;20663;-62
2022/01/27 08:15:18;;;;;;;26.43;10.77;;;;;;;1.62;82.89;101827.94;5112660;28;20599;-62
2022/01/27 08:17:48;;;;;;;25.53;9.87;;;;;;;1.50;84.32;101826.63;5104898;27;20210;-64
2022/01/27 08:20:15;;;;;;;28.30;11.03;;;;;;;1.49;84.58;101824.09;5103967;27;20283;-63
2022/01/27 08:22:44;;;;;;;27.43;10.20;;;;;;;1.55;85.19;101817.78;5100054;27;20293;-63
2022/01/27 08:25:12;;;;;;;25.20;9.80;;;;;;;1.53;85.37;101812.59;5099280;27;20207;-63
2022/01/27 08:27:44;;;;;;;33.23;10.60;;;;;;;1.33;86.80;101820.31;5111517;28;20237;-63
2022/01/27 08:30:16;;;;;;;26.87;10.30;;;;;;;1.54;86.51;101814.31;5115418;27;20297;-63
2022/01/27 08:32:48;;;;;;;21.07;8.40;;;;;;;1.54;84.60;101819.53;5114427;27;20213;-64
2022/01/27 08:35:19;;;;;;;26.13;10.37;;;;;;;1.32;87.00;101816.03;5112949;27;20229;-63
2022/01/27 08:37:47;;;;;;;26.70;9.50;;;;;;;1.52;85.62;101822.19;5110841;28;20231;-63
2022/01/27 08:40:17;;;;;;;29.80;10.17;;;;;;;1.74;85.63;101824.00;5111692;28;20260;-63
2022/01/27 08:43:04;;;;;;;31.80;10.17;;;;;;;1.94;84.50;101825.84;5113258;28;20746;-63
2022/01/27 08:45:32;;;;;;;27.70;9.57;;;;;;;1.64;86.05;101820.91;5113771;27;20252;-63
2022/01/27 08:48:01;;;;;;;25.17;9.93;;;;;;;1.77;85.79;101818.66;5108619;28;20305;-63
2022/01/27 08:50:30;;;;;;;24.37;9.73;;;;;;;1.62;85.94;101817.47;5111557;28;20202;-61
2022/01/27 08:52:58;;;;;;;26.03;10.03;;;;;;;1.73;85.86;101809.22;5113785;27;20210;-62
2022/01/27 08:55:26;;;;;;;28.17;10.90;;;;;;;1.78;85.41;101821.19;5111065;28;20291;-63
2022/01/27 08:57:54;;;;;;;27.87;10.40;;;;;;;1.48;86.80;101823.25;5115550;27;20215;-65
2022/01/27 09:00:23;;;;;;;27.13;10.17;;;;;;;1.41;87.40;101824.34;5112196;28;20240;-64
2022/01/27 09:02:52;;;;;;;27.37;9.57;;;;;;;1.45;86.91;101825.97;5112295;27;20248;-63
2022/01/27 09:05:20;;;;;;;25.63;9.83;;;;;;;1.58;86.56;101825.50;5115163;27;20232;-65
2022/01/27 09:07:50;;;;;;;27.23;9.70;;;;;;;1.27;88.16;101820.56;5111156;27;20298;-65
2022/01/27 09:10:18;;;;;;;24.87;9.40;;;;;;;1.54;87.05;101814.31;5110526;28;20212;-64
2022/01/27 09:12:46;;;;;;;23.67;8.93;;;;;;;1.59;86.75;101803.66;5109824;28;20214;-65
2022/01/27 09:15:14;;;;;;;24.27;9.20;;;;;;;1.65;86.82;101813.91;5113708;27;20312;-65
2022/01/27 09:17:41;;;;;;;25.07;8.90;;;;;;;1.47;86.71;101825.91;5112943;28;20612;-65
2022/01/27 09:20:11;;;;;;;22.97;9.17;;;;;;;1.28;87.81;101822.25;5116651;27;20205;-63
2022/01/27 09:22:40;;;;;;;23.33;9.27;;;;;;;1.45;87.10;101827.72;5106850;27;20298;-62
2022/01/27 09:25:15;;;;;;;24.63;8.80;;;;;;;1.43;87.23;101838.22;5104488;27;20246;-63
2022/01/27 09:27:45;;;;;;;27.53;9.27;;;;;;;1.53;85.99;101833.50;5114861;27;20217;-63
2022/01/27 09:30:14;;;;;;;28.70;10.10;;;;;;;1.72;85.54;101829.28;5114103;27;20214;-61
2022/01/27 09:32:41;;;;;;;27.90;11.47;;;;;;;1.94;84.46;101820.59;5116467;27;20580;-62
2022/01/27 09:35:10;;;;;;;27.40;10.47;;;;;;;1.54;85.70;101821.28;5108684;27;20231;-62
2022/01/27 09:37:38;;;;;;;27.87;10.47;;;;;;;1.48;86.35;101830.22;5114174;27;20209;-63
2022/01/27 09:40:07;;;;;;;28.50;10.67;;;;;;;1.41;86.75;101829.59;5127104;27;20234;-62
2022/01/27 09:42:38;;;;;;;27.93;9.83;;;;;;;1.31;86.87;101825.63;5113602;27;20216;-62
2022/01/27 09:45:08;;;;;;;27.80;10.57;;;;;;;1.43;86.41;101832.16;5127348;27;20212;-62
2022/01/27 09:47:40;;;;;;;22.50;9.93;;;;;;;1.41;86.65;101839.19;5116271;27;20663;-61
2022/01/27 09:50:25;;;;;;;29.47;10.43;;;;;;;1.58;85.93;101836.81;5108639;28;20600;-62
2022/01/27 09:52:54;;;;;;;28.63;9.83;;;;;;;1.44;86.00;101839.09;5111368;28;20206;-62
2022/01/27 09:55:22;;;;;;;28.50;9.37;;;;;;;1.24;86.79;101831.09;5112935;27;20461;-63
2022/01/27 09:57:53;;;;;;;27.63;9.90;;;;;;;1.03;88.30;101833.59;5113464;28;20723;-63
2022/01/27 10:00:21;;;;;;;29.47;9.60;;;;;;;1.36;86.96;101826.28;5113376;27;20240;-62
2022/01/27 10:03:03;;;;;;;27.10;10.83;;;;;;;1.29;86.98;101822.22;5115423;27;20669;-62
2022/01/27 10:05:31;;;;;;;27.87;8.93;;;;;;;1.36;86.65;101817.59;5110145;27;20238;-62
2022/01/27 10:08:05;;;;;;;27.50;9.60;;;;;;;1.39;85.91;101814.88;5113566;27;20208;-62
2022/01/27 10:10:38;;;;;;;28.07;9.73;;;;;;;1.39;85.94;101810.50;5112788;27;20306;-63
2022/01/27 10:13:10;;;;;;;27.47;9.30;;;;;;;1.43;86.10;101822.53;5110779;28;20282;-62
2022/01/27 10:15:46;;;;;;;23.83;8.57;;;;;;;1.44;85.52;101813.78;5123670;27;20216;-62
2022/01/27 10:18:15;;;;;;;20.50;8.17;;;;;;;1.29;86.44;101810.91;5119286;27;20271;-62
2022/01/27 10:20:50;;;;;;;20.50;7.67;;;;;;;1.36;85.65;101802.78;5109087;28;20220;-62
2022/01/27 10:23:19;;;;;;;24.20;8.30;;;;;;;1.35;85.61;101798.44;5117163;27;20233;-62
2022/01/27 10:25:52;;;;;;;29.20;9.50;;;;;;;1.30;86.30;101796.94;5111815;28;20765;-62
2022/01/27 10:28:40;;;;;;;23.13;8.80;;;;;;;1.33;86.37;101802.03;5100426;27;20222;-62
2022/01/27 10:31:10;;;;;;;22.80;8.50;;;;;;;1.35;86.32;101802.81;5111918;27;20206;-61
2022/01/27 10:33:46;;;;;;;29.77;9.00;;;;;;;1.32;86.77;101795.94;5109750;27;20226;-62
2022/01/27 10:36:16;;;;;;;24.60;8.40;;;;;;;1.49;85.95;101790.13;5097373;28;20325;-62
2022/01/27 10:38:44;;;;;;;23.40;9.17;;;;;;;1.50;85.22;101786.56;5109708;28;20586;-62
2022/01/27 10:41:16;;;;;;;21.10;7.60;;;;;;;1.26;85.90;101795.31;5106559;28;20842;-62
2022/01/27 10:43:46;;;;;;;22.83;9.03;;;;;;;1.12;86.54;101799.31;5107738;28;20353;-62
2022/01/27 10:46:21;;;;;;;36.13;9.80;;;;;;;1.43;85.83;101796.41;5111645;27;20260;-63
2022/01/27 10:48:54;;;;;;;20.57;7.80;;;;;;;1.39;85.56;101793.97;5109930;27;20210;-62
2022/01/27 10:51:25;;;;;;;21.50;8.37;;;;;;;1.39;85.63;101787.00;5103748;28;20213;-63
2022/01/27 10:54:00;;;;;;;24.77;8.40;;;;;;;1.33;85.30;101776.75;5103300;27;20468;-62
2022/01/27 10:56:29;;;;;;;23.00;8.80;;;;;;;1.34;85.65;101764.53;5110517;28;20257;-62
2022/01/27 10:59:00;;;;;;;20.97;7.70;;;;;;;1.49;84.77;101770.06;5109713;28;20210;-63
2022/01/27 11:01:30;;;;;;;22.83;8.73;;;;;;;1.45;84.96;101783.28;5116831;28;20213;-62
2022/01/27 11:04:01;;;;;;;23.10;7.77;;;;;;;1.30;85.64;101774.25;5122622;27;20267;-62
2022/01/27 11:06:31;;;;;;;19.87;8.03;;;;;;;1.26;86.29;101769.19;5096471;28;20557;-62
2022/01/27 11:09:04;;;;;;;21.33;8.30;;;;;;;1.56;84.90;101760.19;5109872;28;20220;-62
2022/01/27 11:11:33;;;;;;;15.20;7.27;;;;;;;1.76;83.95;101767.28;5120832;27;20210;-62
2022/01/27 11:14:04;;;;;;;17.63;7.97;;;;;;;1.67;83.81;101763.22;5119075;28;20304;-63
2022/01/27 11:16:37;;;;;;;19.87;8.63;;;;;;;1.76;83.87;101757.63;5123885;28;20225;-62
2022/01/27 11:19:39;;;;;;;23.53;8.53;;;;;;;1.76;84.08;101768.09;5114550;28;20221;-62
2022/01/27 11:22:21;;;;;;;22.83;8.87;;;;;;;1.51;85.40;101765.59;5093358;28;20639;-62
2022/01/27 11:25:09;;;;;;;24.00;9.07;;;;;;;1.62;85.61;101759.09;5106704;28;20579;-64
2022/01/27 11:27:39;;;;;;;26.13;8.47;;;;;;;1.76;84.63;101746.34;5111110;28;20252;-63
2022/01/27 11:30:13;;;;;;;21.87;8.13;;;;;;;1.93;83.94;101758.75;5118891;28;20262;-62
2022/01/27 11:32:46;;;;;;;19.67;8.73;;;;;;;2.31;81.94;101744.06;5115528;28;20207;-62
2022/01/27 11:35:19;;;;;;;16.83;7.20;;;;;;;1.98;83.50;101743.72;5109800;28;20320;-62
2022/01/27 11:37:50;;;;;;;21.47;8.47;;;;;;;1.90;83.79;101751.88;5110738;28;20214;-63
2022/01/27 11:40:20;;;;;;;20.63;7.63;;;;;;;1.97;84.48;101755.09;5111208;28;20206;-64
2022/01/27 11:43:07;;;;;;;15.60;7.20;;;;;;;1.98;83.75;101748.94;5110271;28;20618;-63
2022/01/27 11:45:40;;;;;;;19.70;7.77;;;;;;;1.87;84.58;101734.53;5111535;28;20218;-63
2022/01/27 11:48:10;;;;;;;21.80;7.37;;;;;;;2.03;84.40;101718.19;5115468;28;20678;-61
2022/01/27 11:50:52;;;;;;;20.80;7.83;;;;;;;2.38;82.49;101714.09;5123336;28;20202;-61
2022/01/27 11:53:31;;;;;;;18.50;8.67;;;;;;;2.18;83.23;101712.34;5109611;28;20212;-62
2022/01/27 11:56:00;;;;;;;22.77;9.43;;;;;;;2.12;82.83;101696.88;5112119;28;20321;-62
2022/01/27 11:58:29;;;;;;;22.13;8.40;;;;;;;2.00;83.70;101708.72;5095103;28;20323;-61